Wawa Airport
CYXZ : now visible

Airfield :











YOU CAN JOIN US ON...

 
LOGIN :

Register | Disclaimer

   EN    FR    IT 

 









Legend :    VFR   Marginal VFR   IFR   Intensive IFR   Very Intensive IFR
Visi :
Ceiling :
>= 8 km
>= 3000ft
5 to 8 km
1000 to 3000 ft
1500m to 5 km
500 to 1000 ft
800 to 1500m
200 to 500 ft
< 800m
< 200 ft
Symbols :   Thunderstorms  Fog  Heavy snow  Heavy precipitations  Wind > 20 kt






- Airport Elevation : 942 ft
- IATA code : YXZ


CYXZ - Wawa

CURRENT METAR :
  • 232100Z 20011G18KT 170V250 15SM FEW054 SCT150 BKN280 26/15 A3000 RMK SF1AC3CS4 SF TR PRESFR SLP164 DENSITY ALT 2400FT

EXPIRED METARs :
  • 232000Z 24005KT 200V360 15SM FEW045 SCT090 OVC270 24/16 A3005 RMK SF1AC4CS4 SF TR SLP179 DENSITY ALT 2100FT
  • 231900Z 25005KT 180V320 15SM FEW045 FEW084 SCT270 25/15 A3006 RMK SF1AC1CS3 SF TR SLP185 DENSITY ALT 2200FT

TAF TAF CYXZ
Valid from the 23 at 20:00 until the 24 at 00:00 UTC


231940Z 2320/2324 20008KT P6SM FEW040
FM232100 21009KT P6SM SCT040
TEMPO 2321/2324 BKN040 RMK NXT FCST WILL BE ISSUED AT 241245Z
CZYZ FIR / North America



MET'MAP, your aeronautical weather chart ! - Copyright ORBIFLY December 2007 - Disclaimer

ORBIFLY MET'MAP TEAM :

Programming & Development : Alexandra Zaïnal
Concept & original design : Baudouin d'Aumeries
Assistance for programming : Marc-Olivier Méhu
Technical & hardware support : Manuel Goepfert

Contact : metmap@orbifly.com




SOURCES & CREDITS :

   NOAA       Earth
Advisory